This is the latest recevied weather packets stored in our database for station/object KD4KKF. If no packets are shown the sender has not sent any weather packets the latest 10 day(s).
| Time | Temp. | Humidity | Pressure | Rain* | Wind** | Luminosity | Snow |
|---|---|---|---|---|---|---|---|
| 1777906192 | 20.56° C | 68% | 1016.2 hPa | 0 mm | - | 762 W/m² | - |
| 1777905889 | 20° C | 69% | 1016.4 hPa | 0 mm | - | 740 W/m² | - |
| 1777905585 | 20° C | 68% | 1016.8 hPa | 0 mm | - | 691 W/m² | - |
| 1777905282 | 19.44° C | 69% | 1016.2 hPa | 0 mm | - | 665 W/m² | - |
| 1777904980 | 19.44° C | 70% | 1016.2 hPa | 0 mm | - | 664 W/m² | - |
| 1777904677 | 19.44° C | 71% | 1016.6 hPa | 0 mm | - | 634 W/m² | - |
| 1777904374 | 18.89° C | 73% | 1016.6 hPa | 0 mm | - | 586 W/m² | - |
| 1777904070 | 18.89° C | 72% | 1016.5 hPa | 0 mm | - | 535 W/m² | - |
| 1777903762 | 18.89° C | 72% | 1016.7 hPa | 0 mm | - | 574 W/m² | - |
| 1777903458 | 17.78° C | 72% | 1016.4 hPa | 0 mm | - | 521 W/m² | - |
| 1777903155 | 17.78° C | 71% | 1016.6 hPa | 0 mm | - | 541 W/m² | - |
| 1777902851 | 16.67° C | 75% | 1016.7 hPa | 0 mm | - | 481 W/m² | - |
| 1777902549 | 16.67° C | 76% | 1016.5 hPa | 0 mm | - | 454 W/m² | - |
| 1777902245 | 16.67° C | 75% | 1016.6 hPa | 0 mm | - | 437 W/m² | - |
| 1777901944 | 16.67° C | 76% | 1016.5 hPa | 0 mm | - | 368 W/m² | - |
| 1777901641 | 16.11° C | 76% | 1016.6 hPa | 0 mm | - | 363 W/m² | - |
| 1777901338 | 15° C | 79% | 1016.7 hPa | 0 mm | - | 342 W/m² | - |
| 1777901035 | 15° C | 80% | 1016.7 hPa | 0 mm | - | 340 W/m² | - |
| 1777900733 | 14.44° C | 79% | 1016.7 hPa | 0 mm | - | 85 W/m² | - |
| 1777900429 | 15° C | 80% | 1016.8 hPa | 0 mm | - | 239 W/m² | - |
| 1777900127 | 15° C | 83% | 1016.8 hPa | 0 mm | - | 266 W/m² | - |
| 1777899823 | 15° C | 83% | 1016.9 hPa | 0 mm | - | 206 W/m² | - |
| 1777899520 | 13.89° C | 87% | 1016.7 hPa | 0 mm | - | 201 W/m² | - |
| 1777899212 | 12.22° C | 95% | 1016.7 hPa | 0 mm | - | 203 W/m² | - |
| 1777898909 | 11.67° C | 99% | 1016.9 hPa | 0 mm | - | 108 W/m² | - |
* Rain latest hour (hover to see other rain measurements)
** Current wind speed in m/s (hover to see current wind gust speed)